sensor_id;sensor_type;location;lat;lon;timestamp;P1;durP1;ratioP1;P2;durP2;ratioP2
78844;SDS011;68195;50.854;2.860;2023-05-23T00:02:53;31.43;;;12.80;;
78844;SDS011;68195;50.854;2.860;2023-05-23T00:05:19;27.75;;;12.60;;
78844;SDS011;68195;50.854;2.860;2023-05-23T00:07:44;33.15;;;12.30;;
78844;SDS011;68195;50.854;2.860;2023-05-23T00:12:35;30.23;;;12.82;;
78844;SDS011;68195;50.854;2.860;2023-05-23T00:15:06;32.42;;;12.73;;
78844;SDS011;68195;50.854;2.860;2023-05-23T00:17:33;28.10;;;12.48;;
78844;SDS011;68195;50.854;2.860;2023-05-23T00:20:03;27.58;;;12.40;;
78844;SDS011;68195;50.854;2.860;2023-05-23T00:22:36;34.80;;;14.60;;
78844;SDS011;68195;50.854;2.860;2023-05-23T00:25:04;33.17;;;13.80;;
78844;SDS011;68195;50.854;2.860;2023-05-23T00:27:30;31.67;;;14.45;;
78844;SDS011;68195;50.854;2.860;2023-05-23T00:29:56;32.28;;;12.73;;
78844;SDS011;68195;50.854;2.860;2023-05-23T00:34:46;34.67;;;13.57;;
78844;SDS011;68195;50.854;2.860;2023-05-23T00:37:12;33.70;;;13.65;;
78844;SDS011;68195;50.854;2.860;2023-05-23T00:39:38;36.88;;;13.73;;
78844;SDS011;68195;50.854;2.860;2023-05-23T00:44:29;38.22;;;13.30;;
78844;SDS011;68195;50.854;2.860;2023-05-23T00:49:21;33.33;;;11.48;;
78844;SDS011;68195;50.854;2.860;2023-05-23T00:51:48;35.55;;;11.82;;
78844;SDS011;68195;50.854;2.860;2023-05-23T00:54:15;40.22;;;13.38;;
78844;SDS011;68195;50.854;2.860;2023-05-23T00:56:43;39.13;;;16.33;;
78844;SDS011;68195;50.854;2.860;2023-05-23T00:59:09;32.10;;;13.55;;
78844;SDS011;68195;50.854;2.860;2023-05-23T01:01:35;36.17;;;14.57;;
78844;SDS011;68195;50.854;2.860;2023-05-23T01:04:01;39.30;;;14.45;;
78844;SDS011;68195;50.854;2.860;2023-05-23T01:06:30;32.47;;;14.30;;
78844;SDS011;68195;50.854;2.860;2023-05-23T01:08:57;35.85;;;14.65;;
78844;SDS011;68195;50.854;2.860;2023-05-23T01:11:34;37.25;;;14.65;;
78844;SDS011;68195;50.854;2.860;2023-05-23T01:14:11;38.97;;;15.30;;
78844;SDS011;68195;50.854;2.860;2023-05-23T01:16:46;34.22;;;14.68;;
78844;SDS011;68195;50.854;2.860;2023-05-23T01:22:10;34.35;;;13.73;;
78844;SDS011;68195;50.854;2.860;2023-05-23T01:24:56;37.53;;;15.57;;
78844;SDS011;68195;50.854;2.860;2023-05-23T01:30:20;36.05;;;14.45;;
78844;SDS011;68195;50.854;2.860;2023-05-23T01:32:49;28.80;;;13.90;;
78844;SDS011;68195;50.854;2.860;2023-05-23T01:35:23;31.55;;;12.60;;
78844;SDS011;68195;50.854;2.860;2023-05-23T01:37:53;38.53;;;14.77;;
78844;SDS011;68195;50.854;2.860;2023-05-23T01:40:20;28.02;;;14.00;;
78844;SDS011;68195;50.854;2.860;2023-05-23T01:42:47;32.03;;;14.23;;
78844;SDS011;68195;50.854;2.860;2023-05-23T01:45:13;36.03;;;13.52;;
78844;SDS011;68195;50.854;2.860;2023-05-23T01:47:40;36.13;;;13.02;;
78844;SDS011;68195;50.854;2.860;2023-05-23T01:50:09;24.08;;;12.68;;
78844;SDS011;68195;50.854;2.860;2023-05-23T01:52:35;28.45;;;12.80;;
78844;SDS011;68195;50.854;2.860;2023-05-23T01:57:34;25.00;;;11.52;;
78844;SDS011;68195;50.854;2.860;2023-05-23T02:00:01;22.10;;;11.13;;
78844;SDS011;68195;50.854;2.860;2023-05-23T02:02:26;23.85;;;9.82;;
78844;SDS011;68195;50.854;2.860;2023-05-23T02:04:52;26.33;;;10.70;;
78844;SDS011;68195;50.854;2.860;2023-05-23T02:09:47;24.05;;;10.57;;
78844;SDS011;68195;50.854;2.860;2023-05-23T02:12:12;19.50;;;10.15;;
78844;SDS011;68195;50.854;2.860;2023-05-23T02:14:38;18.98;;;9.77;;
78844;SDS011;68195;50.854;2.860;2023-05-23T02:17:03;20.33;;;9.38;;
78844;SDS011;68195;50.854;2.860;2023-05-23T02:21:54;21.02;;;8.23;;
78844;SDS011;68195;50.854;2.860;2023-05-23T02:24:20;18.48;;;9.35;;
78844;SDS011;68195;50.854;2.860;2023-05-23T02:29:11;23.97;;;9.40;;
78844;SDS011;68195;50.854;2.860;2023-05-23T02:31:36;19.08;;;8.30;;
78844;SDS011;68195;50.854;2.860;2023-05-23T02:34:01;30.75;;;10.40;;
78844;SDS011;68195;50.854;2.860;2023-05-23T02:38:52;19.75;;;10.25;;
78844;SDS011;68195;50.854;2.860;2023-05-23T02:41:18;22.13;;;10.98;;
78844;SDS011;68195;50.854;2.860;2023-05-23T02:46:10;21.92;;;10.40;;
78844;SDS011;68195;50.854;2.860;2023-05-23T02:48:37;22.70;;;10.52;;
78844;SDS011;68195;50.854;2.860;2023-05-23T02:51:03;26.08;;;10.45;;
78844;SDS011;68195;50.854;2.860;2023-05-23T02:55:53;23.85;;;10.18;;
78844;SDS011;68195;50.854;2.860;2023-05-23T03:00:44;24.52;;;10.15;;
78844;SDS011;68195;50.854;2.860;2023-05-23T03:05:36;19.15;;;10.20;;
78844;SDS011;68195;50.854;2.860;2023-05-23T03:08:01;24.02;;;11.02;;
78844;SDS011;68195;50.854;2.860;2023-05-23T03:10:27;26.25;;;11.10;;
78844;SDS011;68195;50.854;2.860;2023-05-23T03:15:18;26.60;;;11.80;;
78844;SDS011;68195;50.854;2.860;2023-05-23T03:20:09;21.60;;;10.95;;
78844;SDS011;68195;50.854;2.860;2023-05-23T03:22:35;20.35;;;10.50;;
78844;SDS011;68195;50.854;2.860;2023-05-23T03:27:26;18.95;;;9.70;;
78844;SDS011;68195;50.854;2.860;2023-05-23T03:29:53;19.67;;;10.65;;
78844;SDS011;68195;50.854;2.860;2023-05-23T03:32:18;23.95;;;9.75;;
78844;SDS011;68195;50.854;2.860;2023-05-23T03:37:10;18.77;;;8.32;;
78844;SDS011;68195;50.854;2.860;2023-05-23T03:42:02;20.00;;;8.18;;
78844;SDS011;68195;50.854;2.860;2023-05-23T03:44:28;18.88;;;7.65;;
78844;SDS011;68195;50.854;2.860;2023-05-23T03:49:18;22.15;;;7.43;;
78844;SDS011;68195;50.854;2.860;2023-05-23T03:54:10;21.55;;;6.50;;
78844;SDS011;68195;50.854;2.860;2023-05-23T03:56:36;13.13;;;5.35;;
78844;SDS011;68195;50.854;2.860;2023-05-23T03:59:02;15.98;;;7.47;;
78844;SDS011;68195;50.854;2.860;2023-05-23T04:01:31;15.70;;;6.03;;
78844;SDS011;68195;50.854;2.860;2023-05-23T04:04:22;14.93;;;6.30;;
78844;SDS011;68195;50.854;2.860;2023-05-23T04:06:50;16.90;;;6.68;;
78844;SDS011;68195;50.854;2.860;2023-05-23T04:09:17;15.13;;;5.55;;
78844;SDS011;68195;50.854;2.860;2023-05-23T04:11:44;16.75;;;7.00;;
78844;SDS011;68195;50.854;2.860;2023-05-23T04:14:15;17.50;;;6.75;;
78844;SDS011;68195;50.854;2.860;2023-05-23T04:16:41;19.15;;;6.90;;
78844;SDS011;68195;50.854;2.860;2023-05-23T04:19:09;14.98;;;7.35;;
78844;SDS011;68195;50.854;2.860;2023-05-23T04:21:36;19.58;;;7.53;;
78844;SDS011;68195;50.854;2.860;2023-05-23T04:24:04;17.13;;;6.85;;
78844;SDS011;68195;50.854;2.860;2023-05-23T04:26:36;19.27;;;7.00;;
78844;SDS011;68195;50.854;2.860;2023-05-23T04:29:03;17.13;;;6.68;;
78844;SDS011;68195;50.854;2.860;2023-05-23T04:31:30;18.88;;;7.47;;
78844;SDS011;68195;50.854;2.860;2023-05-23T04:33:55;17.48;;;6.43;;
78844;SDS011;68195;50.854;2.860;2023-05-23T04:36:23;21.58;;;7.05;;
78844;SDS011;68195;50.854;2.860;2023-05-23T04:38:53;15.55;;;7.22;;
78844;SDS011;68195;50.854;2.860;2023-05-23T04:41:21;14.30;;;6.65;;
78844;SDS011;68195;50.854;2.860;2023-05-23T04:43:52;17.92;;;6.78;;
78844;SDS011;68195;50.854;2.860;2023-05-23T04:46:18;14.88;;;7.32;;
78844;SDS011;68195;50.854;2.860;2023-05-23T04:48:51;16.67;;;7.60;;
78844;SDS011;68195;50.854;2.860;2023-05-23T04:51:20;13.23;;;6.68;;
78844;SDS011;68195;50.854;2.860;2023-05-23T04:53:48;14.23;;;7.38;;
78844;SDS011;68195;50.854;2.860;2023-05-23T04:56:15;13.90;;;6.97;;
78844;SDS011;68195;50.854;2.860;2023-05-23T04:58:51;19.67;;;7.85;;
78844;SDS011;68195;50.854;2.860;2023-05-23T05:01:16;13.77;;;6.22;;
78844;SDS011;68195;50.854;2.860;2023-05-23T05:03:43;22.38;;;7.78;;
78844;SDS011;68195;50.854;2.860;2023-05-23T05:06:10;20.60;;;7.22;;
78844;SDS011;68195;50.854;2.860;2023-05-23T05:08:35;17.55;;;7.90;;
78844;SDS011;68195;50.854;2.860;2023-05-23T05:11:01;19.77;;;7.68;;
78844;SDS011;68195;50.854;2.860;2023-05-23T05:15:52;13.70;;;6.95;;
78844;SDS011;68195;50.854;2.860;2023-05-23T05:18:17;19.60;;;7.60;;
78844;SDS011;68195;50.854;2.860;2023-05-23T05:20:45;18.65;;;6.95;;
78844;SDS011;68195;50.854;2.860;2023-05-23T05:23:12;12.90;;;6.72;;
78844;SDS011;68195;50.854;2.860;2023-05-23T05:25:40;12.82;;;6.03;;
78844;SDS011;68195;50.854;2.860;2023-05-23T05:28:05;12.85;;;6.32;;
78844;SDS011;68195;50.854;2.860;2023-05-23T05:30:31;14.85;;;6.10;;
78844;SDS011;68195;50.854;2.860;2023-05-23T05:32:59;22.55;;;7.93;;
78844;SDS011;68195;50.854;2.860;2023-05-23T05:35:31;13.88;;;6.20;;
78844;SDS011;68195;50.854;2.860;2023-05-23T05:37:59;18.38;;;7.25;;
78844;SDS011;68195;50.854;2.860;2023-05-23T05:40:26;15.88;;;6.45;;
78844;SDS011;68195;50.854;2.860;2023-05-23T05:42:52;12.80;;;5.70;;
78844;SDS011;68195;50.854;2.860;2023-05-23T05:45:19;12.50;;;5.90;;
78844;SDS011;68195;50.854;2.860;2023-05-23T05:47:45;18.50;;;7.30;;
78844;SDS011;68195;50.854;2.860;2023-05-23T05:50:10;17.70;;;6.90;;
78844;SDS011;68195;50.854;2.860;2023-05-23T05:52:39;13.82;;;6.13;;
78844;SDS011;68195;50.854;2.860;2023-05-23T05:55:06;14.80;;;6.53;;
78844;SDS011;68195;50.854;2.860;2023-05-23T05:57:35;16.38;;;6.78;;
78844;SDS011;68195;50.854;2.860;2023-05-23T06:00:07;17.80;;;7.07;;
78844;SDS011;68195;50.854;2.860;2023-05-23T06:02:41;15.20;;;7.47;;
78844;SDS011;68195;50.854;2.860;2023-05-23T06:05:07;15.65;;;6.30;;
78844;SDS011;68195;50.854;2.860;2023-05-23T06:07:37;17.52;;;6.53;;
78844;SDS011;68195;50.854;2.860;2023-05-23T06:10:05;13.60;;;6.13;;
78844;SDS011;68195;50.854;2.860;2023-05-23T06:12:31;16.73;;;5.38;;
78844;SDS011;68195;50.854;2.860;2023-05-23T06:15:00;21.30;;;7.43;;
78844;SDS011;68195;50.854;2.860;2023-05-23T06:17:25;15.00;;;6.53;;
78844;SDS011;68195;50.854;2.860;2023-05-23T06:19:52;8.18;;;4.43;;
78844;SDS011;68195;50.854;2.860;2023-05-23T06:22:17;12.10;;;5.13;;
78844;SDS011;68195;50.854;2.860;2023-05-23T06:24:43;9.68;;;5.43;;
78844;SDS011;68195;50.854;2.860;2023-05-23T06:27:08;17.55;;;5.63;;
78844;SDS011;68195;50.854;2.860;2023-05-23T06:29:34;16.08;;;5.63;;
78844;SDS011;68195;50.854;2.860;2023-05-23T06:32:02;19.00;;;5.28;;
78844;SDS011;68195;50.854;2.860;2023-05-23T06:34:27;18.40;;;6.78;;
78844;SDS011;68195;50.854;2.860;2023-05-23T06:36:53;18.23;;;6.50;;
78844;SDS011;68195;50.854;2.860;2023-05-23T06:41:45;11.33;;;5.43;;
78844;SDS011;68195;50.854;2.860;2023-05-23T06:44:11;15.13;;;7.43;;
78844;SDS011;68195;50.854;2.860;2023-05-23T06:46:38;16.42;;;7.25;;
78844;SDS011;68195;50.854;2.860;2023-05-23T06:49:04;13.70;;;6.22;;
78844;SDS011;68195;50.854;2.860;2023-05-23T06:51:29;12.98;;;6.22;;
78844;SDS011;68195;50.854;2.860;2023-05-23T06:53:55;15.15;;;6.25;;
78844;SDS011;68195;50.854;2.860;2023-05-23T06:56:24;15.43;;;6.70;;
78844;SDS011;68195;50.854;2.860;2023-05-23T06:58:50;15.77;;;7.07;;
78844;SDS011;68195;50.854;2.860;2023-05-23T07:01:20;11.00;;;5.47;;
78844;SDS011;68195;50.854;2.860;2023-05-23T07:03:48;10.60;;;5.45;;
78844;SDS011;68195;50.854;2.860;2023-05-23T07:06:15;13.25;;;6.40;;
78844;SDS011;68195;50.854;2.860;2023-05-23T07:08:43;10.88;;;5.80;;
78844;SDS011;68195;50.854;2.860;2023-05-23T07:11:11;14.85;;;6.47;;
78844;SDS011;68195;50.854;2.860;2023-05-23T07:13:36;12.02;;;5.72;;
78844;SDS011;68195;50.854;2.860;2023-05-23T07:16:02;9.30;;;5.18;;
78844;SDS011;68195;50.854;2.860;2023-05-23T07:18:27;14.98;;;5.57;;
78844;SDS011;68195;50.854;2.860;2023-05-23T07:23:18;12.77;;;6.00;;
78844;SDS011;68195;50.854;2.860;2023-05-23T07:25:46;17.25;;;5.63;;
78844;SDS011;68195;50.854;2.860;2023-05-23T07:28:11;16.73;;;8.52;;
78844;SDS011;68195;50.854;2.860;2023-05-23T07:30:37;14.70;;;7.13;;
78844;SDS011;68195;50.854;2.860;2023-05-23T07:33:05;11.52;;;5.97;;
78844;SDS011;68195;50.854;2.860;2023-05-23T07:35:30;13.63;;;6.50;;
78844;SDS011;68195;50.854;2.860;2023-05-23T07:37:55;12.98;;;4.95;;
78844;SDS011;68195;50.854;2.860;2023-05-23T07:42:47;12.05;;;5.40;;
78844;SDS011;68195;50.854;2.860;2023-05-23T07:45:14;9.57;;;4.70;;
78844;SDS011;68195;50.854;2.860;2023-05-23T07:47:45;9.15;;;5.60;;
78844;SDS011;68195;50.854;2.860;2023-05-23T07:50:10;7.43;;;3.70;;
78844;SDS011;68195;50.854;2.860;2023-05-23T07:52:37;15.00;;;6.28;;
78844;SDS011;68195;50.854;2.860;2023-05-23T07:55:03;8.63;;;4.75;;
78844;SDS011;68195;50.854;2.860;2023-05-23T07:57:29;10.07;;;4.32;;
78844;SDS011;68195;50.854;2.860;2023-05-23T07:59:54;9.80;;;5.18;;
78844;SDS011;68195;50.854;2.860;2023-05-23T08:02:20;12.00;;;4.72;;
78844;SDS011;68195;50.854;2.860;2023-05-23T08:04:45;10.57;;;3.22;;
78844;SDS011;68195;50.854;2.860;2023-05-23T08:07:11;5.70;;;3.92;;
78844;SDS011;68195;50.854;2.860;2023-05-23T08:09:37;6.07;;;3.30;;
78844;SDS011;68195;50.854;2.860;2023-05-23T08:12:04;6.10;;;3.30;;
78844;SDS011;68195;50.854;2.860;2023-05-23T08:14:32;9.77;;;3.70;;
78844;SDS011;68195;50.854;2.860;2023-05-23T08:16:58;8.05;;;4.10;;
78844;SDS011;68195;50.854;2.860;2023-05-23T08:19:23;13.05;;;4.13;;
78844;SDS011;68195;50.854;2.860;2023-05-23T08:21:51;5.68;;;3.15;;
78844;SDS011;68195;50.854;2.860;2023-05-23T08:24:17;6.63;;;3.47;;
78844;SDS011;68195;50.854;2.860;2023-05-23T08:26:43;8.40;;;3.85;;
78844;SDS011;68195;50.854;2.860;2023-05-23T08:29:11;11.98;;;3.58;;
78844;SDS011;68195;50.854;2.860;2023-05-23T08:31:37;9.23;;;4.30;;
78844;SDS011;68195;50.854;2.860;2023-05-23T08:34:02;11.13;;;3.40;;
78844;SDS011;68195;50.854;2.860;2023-05-23T08:38:58;4.82;;;2.53;;
78844;SDS011;68195;50.854;2.860;2023-05-23T08:41:24;11.30;;;3.50;;
78844;SDS011;68195;50.854;2.860;2023-05-23T08:43:50;8.18;;;2.67;;
78844;SDS011;68195;50.854;2.860;2023-05-23T08:46:18;7.97;;;2.70;;
78844;SDS011;68195;50.854;2.860;2023-05-23T08:48:49;7.07;;;2.88;;
78844;SDS011;68195;50.854;2.860;2023-05-23T08:51:16;6.03;;;2.50;;
78844;SDS011;68195;50.854;2.860;2023-05-23T08:53:46;9.93;;;2.83;;
78844;SDS011;68195;50.854;2.860;2023-05-23T08:56:12;4.07;;;2.13;;
78844;SDS011;68195;50.854;2.860;2023-05-23T08:58:38;8.38;;;2.40;;
78844;SDS011;68195;50.854;2.860;2023-05-23T09:01:07;6.82;;;2.78;;
78844;SDS011;68195;50.854;2.860;2023-05-23T09:03:35;7.05;;;2.88;;
78844;SDS011;68195;50.854;2.860;2023-05-23T09:06:07;6.55;;;2.80;;
78844;SDS011;68195;50.854;2.860;2023-05-23T09:08:36;10.10;;;2.78;;
78844;SDS011;68195;50.854;2.860;2023-05-23T09:11:02;6.82;;;2.95;;
78844;SDS011;68195;50.854;2.860;2023-05-23T09:13:29;7.88;;;2.85;;
78844;SDS011;68195;50.854;2.860;2023-05-23T09:16:05;10.70;;;3.25;;
78844;SDS011;68195;50.854;2.860;2023-05-23T09:18:34;9.30;;;2.78;;
78844;SDS011;68195;50.854;2.860;2023-05-23T09:21:01;11.80;;;3.55;;
78844;SDS011;68195;50.854;2.860;2023-05-23T09:23:31;9.25;;;3.45;;
78844;SDS011;68195;50.854;2.860;2023-05-23T09:26:01;11.65;;;3.83;;
78844;SDS011;68195;50.854;2.860;2023-05-23T09:28:30;10.50;;;3.70;;
78844;SDS011;68195;50.854;2.860;2023-05-23T09:31:00;6.85;;;2.78;;
78844;SDS011;68195;50.854;2.860;2023-05-23T09:36:07;6.40;;;2.50;;
78844;SDS011;68195;50.854;2.860;2023-05-23T09:38:43;9.60;;;3.17;;
78844;SDS011;68195;50.854;2.860;2023-05-23T09:41:10;10.75;;;3.80;;
78844;SDS011;68195;50.854;2.860;2023-05-23T09:43:48;8.20;;;2.75;;
78844;SDS011;68195;50.854;2.860;2023-05-23T09:46:15;11.63;;;3.22;;
78844;SDS011;68195;50.854;2.860;2023-05-23T09:48:45;10.18;;;3.38;;
78844;SDS011;68195;50.854;2.860;2023-05-23T09:51:11;14.73;;;3.25;;
78844;SDS011;68195;50.854;2.860;2023-05-23T09:53:37;10.60;;;3.30;;
78844;SDS011;68195;50.854;2.860;2023-05-23T09:58:28;8.52;;;2.80;;
78844;SDS011;68195;50.854;2.860;2023-05-23T10:00:57;13.05;;;4.03;;
78844;SDS011;68195;50.854;2.860;2023-05-23T10:03:32;9.90;;;3.22;;
78844;SDS011;68195;50.854;2.860;2023-05-23T10:08:38;13.30;;;4.55;;
78844;SDS011;68195;50.854;2.860;2023-05-23T10:14:21;10.30;;;4.28;;
78844;SDS011;68195;50.854;2.860;2023-05-23T10:16:58;10.43;;;3.17;;
78844;SDS011;68195;50.854;2.860;2023-05-23T10:19:37;8.23;;;2.28;;
78844;SDS011;68195;50.854;2.860;2023-05-23T10:22:33;8.77;;;2.70;;
78844;SDS011;68195;50.854;2.860;2023-05-23T10:25:02;11.43;;;3.47;;
78844;SDS011;68195;50.854;2.860;2023-05-23T10:27:32;13.68;;;3.10;;
78844;SDS011;68195;50.854;2.860;2023-05-23T10:29:58;8.02;;;2.50;;
78844;SDS011;68195;50.854;2.860;2023-05-23T10:32:25;10.40;;;3.45;;
78844;SDS011;68195;50.854;2.860;2023-05-23T10:37:44;12.88;;;3.45;;
78844;SDS011;68195;50.854;2.860;2023-05-23T10:43:30;8.65;;;2.67;;
78844;SDS011;68195;50.854;2.860;2023-05-23T10:46:17;14.82;;;3.08;;
78844;SDS011;68195;50.854;2.860;2023-05-23T10:48:46;6.90;;;2.83;;
78844;SDS011;68195;50.854;2.860;2023-05-23T10:53:45;12.43;;;3.17;;
78844;SDS011;68195;50.854;2.860;2023-05-23T10:56:21;9.13;;;2.45;;
78844;SDS011;68195;50.854;2.860;2023-05-23T10:58:53;9.38;;;2.78;;
78844;SDS011;68195;50.854;2.860;2023-05-23T11:01:20;7.65;;;2.83;;
78844;SDS011;68195;50.854;2.860;2023-05-23T11:14:14;6.72;;;2.65;;
78844;SDS011;68195;50.854;2.860;2023-05-23T11:16:43;11.77;;;3.25;;
78844;SDS011;68195;50.854;2.860;2023-05-23T11:21:42;16.73;;;4.07;;
78844;SDS011;68195;50.854;2.860;2023-05-23T11:24:09;9.32;;;2.90;;
78844;SDS011;68195;50.854;2.860;2023-05-23T11:29:00;13.67;;;3.30;;
78844;SDS011;68195;50.854;2.860;2023-05-23T11:31:28;8.93;;;2.70;;
78844;SDS011;68195;50.854;2.860;2023-05-23T11:33:56;9.13;;;3.10;;
78844;SDS011;68195;50.854;2.860;2023-05-23T11:36:24;12.15;;;3.03;;
78844;SDS011;68195;50.854;2.860;2023-05-23T11:38:53;11.93;;;3.60;;
78844;SDS011;68195;50.854;2.860;2023-05-23T11:41:19;7.78;;;3.50;;
78844;SDS011;68195;50.854;2.860;2023-05-23T11:43:49;10.15;;;2.90;;
78844;SDS011;68195;50.854;2.860;2023-05-23T11:46:15;9.18;;;3.13;;
78844;SDS011;68195;50.854;2.860;2023-05-23T11:51:10;12.27;;;3.47;;
78844;SDS011;68195;50.854;2.860;2023-05-23T11:56:02;7.28;;;2.53;;
78844;SDS011;68195;50.854;2.860;2023-05-23T12:01:07;6.90;;;2.65;;
78844;SDS011;68195;50.854;2.860;2023-05-23T12:03:34;5.60;;;2.20;;
78844;SDS011;68195;50.854;2.860;2023-05-23T12:06:09;14.68;;;3.40;;
78844;SDS011;68195;50.854;2.860;2023-05-23T12:11:02;10.75;;;3.17;;
78844;SDS011;68195;50.854;2.860;2023-05-23T12:13:31;10.30;;;3.40;;
78844;SDS011;68195;50.854;2.860;2023-05-23T12:15:59;9.55;;;3.28;;
78844;SDS011;68195;50.854;2.860;2023-05-23T12:18:31;10.48;;;2.70;;
78844;SDS011;68195;50.854;2.860;2023-05-23T12:21:01;10.65;;;2.67;;
78844;SDS011;68195;50.854;2.860;2023-05-23T12:23:27;12.02;;;2.67;;
78844;SDS011;68195;50.854;2.860;2023-05-23T12:25:56;8.18;;;3.20;;
78844;SDS011;68195;50.854;2.860;2023-05-23T12:33:39;8.75;;;2.40;;
78844;SDS011;68195;50.854;2.860;2023-05-23T12:36:06;8.02;;;3.33;;
78844;SDS011;68195;50.854;2.860;2023-05-23T12:41:17;8.15;;;2.45;;
78844;SDS011;68195;50.854;2.860;2023-05-23T12:43:54;11.23;;;3.53;;
78844;SDS011;68195;50.854;2.860;2023-05-23T12:46:21;10.73;;;2.75;;
78844;SDS011;68195;50.854;2.860;2023-05-23T12:48:48;12.55;;;3.40;;
78844;SDS011;68195;50.854;2.860;2023-05-23T12:53:40;12.68;;;2.65;;
78844;SDS011;68195;50.854;2.860;2023-05-23T12:58:31;7.07;;;2.30;;
78844;SDS011;68195;50.854;2.860;2023-05-23T13:00:58;7.00;;;2.13;;
78844;SDS011;68195;50.854;2.860;2023-05-23T13:05:49;7.40;;;3.05;;
78844;SDS011;68195;50.854;2.860;2023-05-23T13:10:43;11.38;;;2.65;;
78844;SDS011;68195;50.854;2.860;2023-05-23T13:13:08;9.48;;;2.58;;
78844;SDS011;68195;50.854;2.860;2023-05-23T13:17:59;9.83;;;2.97;;
78844;SDS011;68195;50.854;2.860;2023-05-23T13:20:26;8.05;;;2.47;;
78844;SDS011;68195;50.854;2.860;2023-05-23T13:22:54;10.50;;;3.28;;
78844;SDS011;68195;50.854;2.860;2023-05-23T13:25:24;6.43;;;2.20;;
78844;SDS011;68195;50.854;2.860;2023-05-23T13:27:50;6.90;;;2.80;;
78844;SDS011;68195;50.854;2.860;2023-05-23T13:30:17;10.27;;;3.38;;
78844;SDS011;68195;50.854;2.860;2023-05-23T13:32:44;9.68;;;3.03;;
78844;SDS011;68195;50.854;2.860;2023-05-23T13:37:35;5.93;;;2.15;;
78844;SDS011;68195;50.854;2.860;2023-05-23T13:40:02;8.93;;;2.65;;
78844;SDS011;68195;50.854;2.860;2023-05-23T13:42:28;8.45;;;2.60;;
78844;SDS011;68195;50.854;2.860;2023-05-23T13:47:19;8.60;;;2.63;;
78844;SDS011;68195;50.854;2.860;2023-05-23T13:49:46;8.90;;;2.65;;
78844;SDS011;68195;50.854;2.860;2023-05-23T13:54:37;8.57;;;2.47;;
78844;SDS011;68195;50.854;2.860;2023-05-23T13:59:28;11.43;;;1.92;;
78844;SDS011;68195;50.854;2.860;2023-05-23T14:01:56;7.35;;;2.15;;
78844;SDS011;68195;50.854;2.860;2023-05-23T14:06:47;6.78;;;2.30;;
78844;SDS011;68195;50.854;2.860;2023-05-23T14:09:13;8.40;;;2.13;;
78844;SDS011;68195;50.854;2.860;2023-05-23T14:11:44;8.68;;;2.50;;
78844;SDS011;68195;50.854;2.860;2023-05-23T14:14:09;9.02;;;2.47;;
78844;SDS011;68195;50.854;2.860;2023-05-23T14:19:00;6.73;;;1.90;;
78844;SDS011;68195;50.854;2.860;2023-05-23T14:23:52;7.22;;;1.90;;
78844;SDS011;68195;50.854;2.860;2023-05-23T14:26:19;8.02;;;2.03;;
78844;SDS011;68195;50.854;2.860;2023-05-23T14:28:48;4.80;;;1.95;;
78844;SDS011;68195;50.854;2.860;2023-05-23T14:33:39;4.85;;;1.40;;
78844;SDS011;68195;50.854;2.860;2023-05-23T14:38:30;7.03;;;2.22;;
78844;SDS011;68195;50.854;2.860;2023-05-23T14:43:23;7.28;;;2.63;;
78844;SDS011;68195;50.854;2.860;2023-05-23T14:48:14;6.40;;;1.93;;
78844;SDS011;68195;50.854;2.860;2023-05-23T14:50:42;9.70;;;2.33;;
78844;SDS011;68195;50.854;2.860;2023-05-23T14:53:10;5.20;;;1.95;;
78844;SDS011;68195;50.854;2.860;2023-05-23T14:58:03;3.65;;;1.50;;
78844;SDS011;68195;50.854;2.860;2023-05-23T15:00:30;10.77;;;3.22;;
78844;SDS011;68195;50.854;2.860;2023-05-23T15:06:01;12.93;;;3.25;;
78844;SDS011;68195;50.854;2.860;2023-05-23T15:08:34;6.40;;;2.40;;
78844;SDS011;68195;50.854;2.860;2023-05-23T15:11:02;5.25;;;2.17;;
78844;SDS011;68195;50.854;2.860;2023-05-23T15:16:17;9.32;;;2.35;;
78844;SDS011;68195;50.854;2.860;2023-05-23T15:18:48;7.20;;;2.30;;
78844;SDS011;68195;50.854;2.860;2023-05-23T15:21:17;7.55;;;2.35;;
78844;SDS011;68195;50.854;2.860;2023-05-23T15:23:47;7.05;;;2.55;;
78844;SDS011;68195;50.854;2.860;2023-05-23T15:28:40;4.35;;;1.73;;
78844;SDS011;68195;50.854;2.860;2023-05-23T15:31:08;6.75;;;2.15;;
78844;SDS011;68195;50.854;2.860;2023-05-23T15:35:59;6.00;;;2.33;;
78844;SDS011;68195;50.854;2.860;2023-05-23T15:38:28;7.22;;;2.13;;
78844;SDS011;68195;50.854;2.860;2023-05-23T15:40:53;6.20;;;2.13;;
78844;SDS011;68195;50.854;2.860;2023-05-23T15:43:28;4.45;;;1.73;;
78844;SDS011;68195;50.854;2.860;2023-05-23T15:45:54;12.63;;;3.60;;
78844;SDS011;68195;50.854;2.860;2023-05-23T15:50:45;6.23;;;2.53;;
78844;SDS011;68195;50.854;2.860;2023-05-23T15:55:36;8.73;;;1.93;;
78844;SDS011;68195;50.854;2.860;2023-05-23T16:00:27;10.47;;;2.47;;
78844;SDS011;68195;50.854;2.860;2023-05-23T16:02:55;7.15;;;2.13;;
78844;SDS011;68195;50.854;2.860;2023-05-23T16:07:48;5.40;;;1.58;;
78844;SDS011;68195;50.854;2.860;2023-05-23T16:12:39;6.85;;;1.85;;
78844;SDS011;68195;50.854;2.860;2023-05-23T16:17:30;6.93;;;1.27;;
78844;SDS011;68195;50.854;2.860;2023-05-23T16:19:57;8.40;;;2.08;;
78844;SDS011;68195;50.854;2.860;2023-05-23T16:22:28;10.13;;;2.53;;
78844;SDS011;68195;50.854;2.860;2023-05-23T16:24:56;11.35;;;2.55;;
78844;SDS011;68195;50.854;2.860;2023-05-23T16:29:47;6.93;;;2.03;;
78844;SDS011;68195;50.854;2.860;2023-05-23T16:34:41;11.02;;;2.38;;
78844;SDS011;68195;50.854;2.860;2023-05-23T16:39:34;8.73;;;2.15;;
78844;SDS011;68195;50.854;2.860;2023-05-23T16:42:02;9.57;;;3.05;;
78844;SDS011;68195;50.854;2.860;2023-05-23T16:44:34;8.32;;;1.65;;
78844;SDS011;68195;50.854;2.860;2023-05-23T16:47:02;7.30;;;1.98;;
78844;SDS011;68195;50.854;2.860;2023-05-23T16:49:30;4.90;;;1.50;;
78844;SDS011;68195;50.854;2.860;2023-05-23T16:51:57;8.65;;;2.45;;
78844;SDS011;68195;50.854;2.860;2023-05-23T16:54:25;8.80;;;1.73;;
78844;SDS011;68195;50.854;2.860;2023-05-23T16:56:58;9.70;;;2.20;;
78844;SDS011;68195;50.854;2.860;2023-05-23T16:59:27;4.22;;;2.22;;
78844;SDS011;68195;50.854;2.860;2023-05-23T17:01:56;11.30;;;1.88;;
78844;SDS011;68195;50.854;2.860;2023-05-23T17:04:22;7.63;;;2.22;;
78844;SDS011;68195;50.854;2.860;2023-05-23T17:06:50;10.75;;;2.65;;
78844;SDS011;68195;50.854;2.860;2023-05-23T17:09:15;7.00;;;1.85;;
78844;SDS011;68195;50.854;2.860;2023-05-23T17:11:46;6.07;;;2.22;;
78844;SDS011;68195;50.854;2.860;2023-05-23T17:14:12;11.32;;;1.92;;
78844;SDS011;68195;50.854;2.860;2023-05-23T17:16:38;8.55;;;1.95;;
78844;SDS011;68195;50.854;2.860;2023-05-23T17:19:11;6.30;;;2.15;;
78844;SDS011;68195;50.854;2.860;2023-05-23T17:21:36;5.00;;;2.00;;
78844;SDS011;68195;50.854;2.860;2023-05-23T17:26:28;8.48;;;2.28;;
78844;SDS011;68195;50.854;2.860;2023-05-23T17:31:25;5.75;;;2.00;;
78844;SDS011;68195;50.854;2.860;2023-05-23T17:33:52;6.68;;;2.20;;
78844;SDS011;68195;50.854;2.860;2023-05-23T17:36:20;7.65;;;1.92;;
78844;SDS011;68195;50.854;2.860;2023-05-23T17:38:45;7.32;;;2.00;;
78844;SDS011;68195;50.854;2.860;2023-05-23T17:43:37;4.50;;;1.65;;
78844;SDS011;68195;50.854;2.860;2023-05-23T17:46:07;6.47;;;2.15;;
78844;SDS011;68195;50.854;2.860;2023-05-23T17:48:37;9.05;;;2.28;;
78844;SDS011;68195;50.854;2.860;2023-05-23T17:53:30;11.25;;;3.10;;
78844;SDS011;68195;50.854;2.860;2023-05-23T17:55:58;8.38;;;2.42;;
78844;SDS011;68195;50.854;2.860;2023-05-23T17:58:23;6.88;;;2.30;;
78844;SDS011;68195;50.854;2.860;2023-05-23T18:00:48;7.38;;;2.50;;
78844;SDS011;68195;50.854;2.860;2023-05-23T18:03:16;9.48;;;2.58;;
78844;SDS011;68195;50.854;2.860;2023-05-23T18:05:44;8.80;;;2.63;;